Time;durP1;ratioP1;P1;durP2;ratioP2;P2;SDS_P1;SDS_P2;PMS_P1;PMS_P2;Temp;Humidity;BMP_temperature;BMP_pressure;BME280_temperature;BME280_humidity;BME280_pressure;Samples;Min_cycle;Max_cycle;Signal;HPM_P1;HPM_P2
2023/07/02 00:01:22;;;;;;;11.10;4.57;;;;;;;18.41;100.00;100541.84;5035528;28;20037;-73
2023/07/02 00:03:48;;;;;;;12.60;5.15;;;;;;;18.38;100.00;100538.47;5030556;28;20038;-71
2023/07/02 00:06:13;;;;;;;14.93;5.82;;;;;;;18.27;100.00;100529.75;5033634;28;20037;-73
2023/07/02 00:08:40;;;;;;;12.52;6.28;;;;;;;18.29;100.00;100528.59;5037728;28;20034;-73
2023/07/02 00:11:06;;;;;;;14.38;5.97;;;;;;;18.25;100.00;100526.34;5038703;28;20045;-72
2023/07/02 00:13:32;;;;;;;11.77;5.93;;;;;;;18.31;100.00;100523.88;5036790;28;20091;-72
2023/07/02 00:15:58;;;;;;;15.43;7.45;;;;;;;18.25;100.00;100523.66;5041136;28;20037;-72
2023/07/02 00:18:33;;;;;;;16.38;7.22;;;;;;;18.35;100.00;100529.81;5045737;28;20065;-72
2023/07/02 00:21:00;;;;;;;17.95;7.70;;;;;;;18.29;100.00;100534.00;5046190;28;20052;-72
2023/07/02 00:23:26;;;;;;;24.23;7.93;;;;;;;18.37;100.00;100533.19;5042245;28;20470;-72
2023/07/02 00:25:51;;;;;;;18.30;8.20;;;;;;;18.36;100.00;100528.81;5037107;28;20041;-72
2023/07/02 00:28:17;;;;;;;18.55;7.55;;;;;;;18.47;100.00;100531.25;5040617;28;20045;-73
2023/07/02 00:30:43;;;;;;;21.95;8.77;;;;;;;18.27;100.00;100525.22;5037636;28;20020;-72
2023/07/02 00:33:08;;;;;;;20.83;9.15;;;;;;;18.36;100.00;100521.56;5040489;28;20052;-73
2023/07/02 00:35:34;;;;;;;20.77;9.05;;;;;;;18.41;100.00;100522.94;5038322;28;20048;-72
2023/07/02 00:37:59;;;;;;;21.17;9.18;;;;;;;18.45;100.00;100510.84;5069625;28;20815;-73
2023/07/02 00:40:27;;;;;;;29.38;9.73;;;;;;;18.30;100.00;100513.25;5037519;28;20034;-72
2023/07/02 00:42:52;;;;;;;20.27;8.80;;;;;;;18.35;100.00;100514.47;5043262;28;20041;-73
2023/07/02 00:45:18;;;;;;;26.13;9.23;;;;;;;18.31;100.00;100514.94;5045988;28;20033;-71
2023/07/02 00:47:45;;;;;;;22.90;9.82;;;;;;;18.22;100.00;100524.78;5040598;28;20129;-72
2023/07/02 00:50:11;;;;;;;33.05;10.77;;;;;;;18.23;100.00;100523.81;5036225;28;20100;-72
2023/07/02 00:52:38;;;;;;;30.80;12.15;;;;;;;18.26;100.00;100533.44;5035854;28;20140;-72
2023/07/02 00:55:04;;;;;;;17.58;9.70;;;;;;;18.28;100.00;100528.75;5037065;28;20037;-73
2023/07/02 00:57:30;;;;;;;24.20;10.07;;;;;;;18.31;100.00;100531.13;5036250;28;20048;-72
2023/07/02 01:00:02;;;;;;;20.73;10.80;;;;;;;18.29;100.00;100530.44;5037350;28;20864;-72
2023/07/02 01:02:29;;;;;;;22.45;10.52;;;;;;;18.27;100.00;100527.03;5050823;28;20108;-72
2023/07/02 01:04:59;;;;;;;26.75;11.85;;;;;;;18.25;100.00;100538.00;5036218;28;20137;-73
2023/07/02 01:07:25;;;;;;;29.25;11.10;;;;;;;18.28;100.00;100543.09;5034625;28;20037;-72
2023/07/02 01:09:51;;;;;;;35.83;12.77;;;;;;;18.03;100.00;100552.81;5041114;28;20550;-71
2023/07/02 01:12:18;;;;;;;32.28;12.13;;;;;;;17.97;100.00;100560.63;5071124;28;20037;-72
2023/07/02 01:14:56;;;;;;;25.05;11.32;;;;;;;17.63;100.00;100565.78;5038625;28;20022;-72
2023/07/02 01:17:23;;;;;;;28.45;11.80;;;;;;;17.48;100.00;100578.91;5059112;28;20759;-72
2023/07/02 01:19:52;;;;;;;33.03;10.93;;;;;;;17.33;100.00;100579.38;5041791;28;20038;-73
2023/07/02 01:22:23;;;;;;;23.65;10.55;;;;;;;17.17;100.00;100584.56;5039578;28;20033;-73
2023/07/02 01:24:50;;;;;;;29.55;10.88;;;;;;;17.17;100.00;100580.97;5075747;28;20041;-72
2023/07/02 01:27:16;;;;;;;23.73;9.45;;;;;;;17.13;100.00;100583.13;5035401;28;20053;-73
2023/07/02 01:29:42;;;;;;;28.10;10.43;;;;;;;17.14;100.00;100581.28;5042546;28;20037;-72
2023/07/02 01:32:08;;;;;;;28.23;10.10;;;;;;;17.27;100.00;100579.97;5036776;28;20033;-72
2023/07/02 01:34:35;;;;;;;18.55;8.75;;;;;;;17.27;100.00;100579.09;5036942;28;20475;-72
2023/07/02 01:37:01;;;;;;;26.42;9.85;;;;;;;17.42;100.00;100576.78;5043378;28;20772;-72
2023/07/02 01:39:27;;;;;;;25.52;11.13;;;;;;;17.31;100.00;100580.53;5049310;28;20033;-71
2023/07/02 01:41:54;;;;;;;22.83;9.95;;;;;;;17.37;100.00;100584.47;5043520;28;20037;-72
2023/07/02 01:44:21;;;;;;;26.35;9.73;;;;;;;17.26;100.00;100589.03;5031857;28;20100;-72
2023/07/02 01:46:48;;;;;;;22.17;9.23;;;;;;;17.38;100.00;100584.34;5040086;28;20026;-73
2023/07/02 01:49:18;;;;;;;21.27;8.73;;;;;;;17.35;100.00;100582.78;5033529;28;20076;-72
2023/07/02 01:51:51;;;;;;;23.40;9.00;;;;;;;17.40;100.00;100590.41;5032329;28;20058;-72
2023/07/02 01:54:18;;;;;;;19.02;8.57;;;;;;;17.26;100.00;100594.44;5039180;28;20037;-73
2023/07/02 01:56:43;;;;;;;21.92;9.10;;;;;;;17.21;100.00;100590.47;5037606;28;20052;-73
2023/07/02 01:59:09;;;;;;;25.92;9.75;;;;;;;17.20;100.00;100599.56;5039293;28;20040;-71
2023/07/02 02:01:35;;;;;;;17.73;9.10;;;;;;;17.20;100.00;100602.25;5039695;28;20053;-72
2023/07/02 02:04:00;;;;;;;24.83;9.32;;;;;;;17.05;100.00;100599.19;5035210;28;20083;-72
2023/07/02 02:06:26;;;;;;;19.58;8.95;;;;;;;17.09;100.00;100603.28;5037535;28;20033;-72
2023/07/02 02:08:51;;;;;;;18.92;9.05;;;;;;;16.97;100.00;100602.59;5034655;28;20045;-72
2023/07/02 02:11:17;;;;;;;24.30;9.98;;;;;;;16.88;100.00;100600.78;5032838;28;20053;-72
2023/07/02 02:13:42;;;;;;;23.08;9.27;;;;;;;16.88;100.00;100605.31;5038490;28;20865;-71
2023/07/02 02:16:08;;;;;;;23.02;8.98;;;;;;;16.84;100.00;100599.34;5033678;28;20092;-72
2023/07/02 02:18:34;;;;;;;23.20;9.65;;;;;;;16.81;100.00;100596.94;5037313;28;20076;-72
2023/07/02 02:21:00;;;;;;;21.38;9.45;;;;;;;16.81;100.00;100603.16;5040132;28;20806;-72
2023/07/02 02:23:25;;;;;;;25.45;10.40;;;;;;;16.75;100.00;100605.59;5036028;28;20033;-73
2023/07/02 02:25:51;;;;;;;26.38;9.70;;;;;;;16.71;100.00;100599.63;5039254;28;20036;-73
2023/07/02 02:28:16;;;;;;;37.22;11.52;;;;;;;16.63;100.00;100610.25;5034616;28;20483;-73
2023/07/02 02:30:42;;;;;;;25.88;10.20;;;;;;;16.56;100.00;100611.78;5037984;28;20522;-72
2023/07/02 02:33:07;;;;;;;24.27;9.68;;;;;;;16.54;100.00;100616.47;5035131;28;20040;-72
2023/07/02 02:35:33;;;;;;;21.30;10.30;;;;;;;16.64;100.00;100617.34;5037923;28;20044;-72
2023/07/02 02:38:01;;;;;;;24.45;10.02;;;;;;;16.70;100.00;100613.22;5032519;28;20056;-73
2023/07/02 02:40:27;;;;;;;28.45;10.95;;;;;;;16.68;100.00;100615.22;5045270;28;20072;-71
2023/07/02 02:42:53;;;;;;;30.33;10.30;;;;;;;16.72;100.00;100611.28;5039982;28;20820;-71
2023/07/02 02:45:18;;;;;;;21.77;10.02;;;;;;;16.57;100.00;100613.53;5042230;28;20079;-72
2023/07/02 02:47:46;;;;;;;27.13;10.38;;;;;;;16.49;100.00;100614.22;5040725;28;20072;-72
2023/07/02 02:50:12;;;;;;;27.00;11.73;;;;;;;16.44;100.00;100607.56;5034324;28;20033;-72
2023/07/02 02:52:39;;;;;;;25.92;10.35;;;;;;;16.42;100.00;100614.94;5027518;28;20049;-72
2023/07/02 02:55:06;;;;;;;22.88;11.05;;;;;;;16.35;100.00;100627.22;5043590;28;20144;-72
2023/07/02 02:57:33;;;;;;;27.15;10.10;;;;;;;16.29;100.00;100624.09;5041902;28;20038;-72
2023/07/02 02:59:59;;;;;;;21.10;10.00;;;;;;;16.26;100.00;100623.53;5032209;28;20025;-72
2023/07/02 03:02:24;;;;;;;23.15;10.35;;;;;;;16.27;100.00;100627.94;5067095;28;20583;-73
2023/07/02 03:04:50;;;;;;;29.20;11.65;;;;;;;16.20;100.00;100626.78;5043638;28;20868;-72
2023/07/02 03:07:16;;;;;;;23.38;9.80;;;;;;;16.36;100.00;100626.22;5034480;28;20178;-72
2023/07/02 03:09:42;;;;;;;25.73;10.80;;;;;;;16.42;100.00;100636.47;5031847;28;20037;-73
2023/07/02 03:12:08;;;;;;;31.88;10.52;;;;;;;16.27;100.00;100634.16;5032250;28;21213;-73
2023/07/02 03:14:34;;;;;;;28.55;10.88;;;;;;;16.41;100.00;100642.81;5030487;28;20037;-73
2023/07/02 03:16:59;;;;;;;27.90;10.77;;;;;;;16.49;100.00;100648.34;5031531;28;20096;-72
2023/07/02 03:19:25;;;;;;;27.05;10.75;;;;;;;16.53;100.00;100642.56;5036566;28;20042;-72
2023/07/02 03:21:50;;;;;;;24.38;10.63;;;;;;;16.44;100.00;100642.53;5035868;28;20037;-72
2023/07/02 03:24:16;;;;;;;31.52;11.18;;;;;;;16.44;100.00;100645.22;5032058;28;20029;-71
2023/07/02 03:26:43;;;;;;;26.15;10.25;;;;;;;16.43;100.00;100652.47;5037700;28;21163;-72
2023/07/02 03:29:09;;;;;;;22.95;10.15;;;;;;;16.36;100.00;100654.00;5041106;28;20032;-72
2023/07/02 03:31:35;;;;;;;25.50;10.45;;;;;;;16.52;100.00;100648.94;5032167;28;20034;-71
2023/07/02 03:34:07;;;;;;;25.70;9.93;;;;;;;16.47;100.00;100667.34;5032451;28;20041;-71
2023/07/02 03:36:32;;;;;;;;;;;;;;;16.47;100.00;100653.88;5033618;28;20045;-72
2023/07/02 03:38:58;;;;;;;27.60;10.88;;;;;;;16.45;100.00;100658.53;5032832;28;19925;-71
2023/07/02 03:41:23;;;;;;;31.85;10.95;;;;;;;16.38;100.00;100660.09;5039001;28;20033;-71
2023/07/02 03:43:49;;;;;;;27.83;10.80;;;;;;;16.46;100.00;100660.25;5038982;28;20076;-71
2023/07/02 03:46:15;;;;;;;21.58;10.55;;;;;;;16.29;100.00;100663.63;5034146;28;20049;-72
2023/07/02 03:48:40;;;;;;;26.05;10.65;;;;;;;16.35;100.00;100663.06;5037728;28;20041;-71
2023/07/02 03:51:06;;;;;;;21.63;10.15;;;;;;;16.45;100.00;100668.47;5039616;28;20088;-71
2023/07/02 03:53:31;;;;;;;26.55;10.88;;;;;;;16.37;100.00;100669.19;5035528;28;20084;-71
2023/07/02 03:55:57;;;;;;;25.85;10.10;;;;;;;16.47;100.00;100667.34;5036411;28;20034;-72
2023/07/02 03:58:22;;;;;;;27.15;10.18;;;;;;;16.54;100.00;100673.00;5028984;28;20045;-72
2023/07/02 04:00:51;;;;;;;28.88;10.13;;;;;;;16.50;100.00;100666.19;5035314;28;30116;-72
2023/07/02 04:03:17;;;;;;;24.20;10.07;;;;;;;16.58;100.00;100672.59;5029487;28;20046;-71
2023/07/02 04:05:43;;;;;;;26.63;10.80;;;;;;;16.67;100.00;100673.59;5036251;28;20125;-71
2023/07/02 04:08:09;;;;;;;22.77;9.82;;;;;;;16.86;100.00;100682.69;5062023;28;20045;-71
2023/07/02 04:10:35;;;;;;;23.35;10.43;;;;;;;17.02;100.00;100674.91;5037400;28;20040;-71
2023/07/02 04:13:01;;;;;;;28.25;10.23;;;;;;;17.14;100.00;100676.44;5031350;28;20044;-70
2023/07/02 04:15:26;;;;;;;25.27;10.55;;;;;;;17.44;100.00;100671.84;5030233;28;20155;-71
2023/07/02 04:17:52;;;;;;;24.98;10.90;;;;;;;17.80;100.00;100676.44;5031335;28;20041;-71
2023/07/02 04:20:18;;;;;;;25.73;9.98;;;;;;;17.72;100.00;100673.63;5038931;28;20037;-72
2023/07/02 04:22:45;;;;;;;27.20;10.38;;;;;;;17.49;100.00;100674.97;5042606;28;20037;-71
2023/07/02 04:25:14;;;;;;;26.88;10.52;;;;;;;17.63;100.00;100677.19;5034527;28;20887;-71
2023/07/02 04:27:44;;;;;;;27.20;10.00;;;;;;;17.95;100.00;100682.22;5031133;28;20041;-72
2023/07/02 04:30:11;;;;;;;29.27;10.85;;;;;;;18.27;100.00;100673.69;5037127;28;20100;-71
2023/07/02 04:32:40;;;;;;;22.15;9.48;;;;;;;18.63;100.00;100676.44;5030491;28;20103;-72
2023/07/02 04:35:09;;;;;;;23.10;10.65;;;;;;;19.65;98.66;100678.66;5031715;28;20042;-71
2023/07/02 04:37:35;;;;;;;24.00;10.20;;;;;;;20.64;86.89;100678.06;5034771;28;20084;-71
2023/07/02 04:40:03;;;;;;;23.98;9.85;;;;;;;21.42;80.57;100674.88;5030536;28;20033;-72
2023/07/02 04:42:31;;;;;;;20.73;9.93;;;;;;;21.45;76.37;100674.53;5036221;28;20033;-72
2023/07/02 04:45:02;;;;;;;34.28;10.82;;;;;;;20.89;78.27;100674.38;5030748;28;20030;-73
2023/07/02 04:47:29;;;;;;;23.40;10.60;;;;;;;19.51;83.28;100692.72;5035096;28;20591;-71
2023/07/02 04:49:54;;;;;;;24.70;10.93;;;;;;;19.65;86.67;100692.19;5030096;28;20072;-71
2023/07/02 04:52:20;;;;;;;26.70;10.90;;;;;;;19.35;88.26;100696.16;5036658;28;20061;-72
2023/07/02 04:54:45;;;;;;;34.30;11.13;;;;;;;19.41;90.65;100703.66;5036372;28;20443;-71
2023/07/02 04:57:13;;;;;;;25.55;11.80;;;;;;;18.95;89.80;100692.13;5033603;28;20056;-72
2023/07/02 04:59:38;;;;;;;22.40;9.82;;;;;;;18.94;91.09;100692.28;5039417;28;20079;-71
2023/07/02 05:02:04;;;;;;;32.78;10.95;;;;;;;18.84;91.09;100700.47;5034293;28;20021;-71
2023/07/02 05:04:29;;;;;;;25.77;10.02;;;;;;;19.82;86.20;100701.22;5037630;28;20032;-71
2023/07/02 05:06:55;;;;;;;27.13;10.90;;;;;;;20.43;82.89;100692.00;5039868;28;20071;-71
2023/07/02 05:09:20;;;;;;;25.45;10.40;;;;;;;21.42;75.43;100691.16;5037087;28;20119;-72
2023/07/02 05:11:46;;;;;;;25.13;11.02;;;;;;;22.34;68.42;100680.72;5034111;28;20025;-71
2023/07/02 05:14:11;;;;;;;31.55;11.25;;;;;;;23.02;64.88;100688.13;5043483;28;20953;-71
2023/07/02 05:16:37;;;;;;;27.40;11.02;;;;;;;23.60;63.18;100686.59;5040900;28;20048;-72
2023/07/02 05:19:03;;;;;;;26.15;10.18;;;;;;;23.62;63.25;100700.84;5031283;28;20061;-72
2023/07/02 05:21:28;;;;;;;28.13;11.10;;;;;;;23.20;61.00;100693.25;5037949;28;20041;-72
2023/07/02 05:23:54;;;;;;;29.40;11.63;;;;;;;22.53;63.21;100706.59;5036479;28;20033;-72
2023/07/02 05:26:19;;;;;;;26.63;11.07;;;;;;;21.44;65.98;100700.00;5036031;28;20037;-72
2023/07/02 05:28:45;;;;;;;24.70;10.63;;;;;;;21.43;66.90;100701.81;5039717;28;20026;-73
2023/07/02 05:31:11;;;;;;;32.00;10.98;;;;;;;21.24;68.19;100709.47;5040308;28;20041;-72
2023/07/02 05:33:38;;;;;;;30.58;11.68;;;;;;;21.01;68.38;100714.69;5036325;28;20038;-72
2023/07/02 05:36:04;;;;;;;29.55;10.77;;;;;;;20.96;68.52;100712.47;5039464;28;20954;-73
2023/07/02 05:38:29;;;;;;;33.63;12.00;;;;;;;20.74;70.75;100716.69;5039382;28;20063;-72
2023/07/02 05:40:55;;;;;;;27.05;11.15;;;;;;;20.37;71.09;100717.91;5046766;28;20036;-72
2023/07/02 05:43:20;;;;;;;30.55;11.38;;;;;;;20.36;70.90;100728.91;5039746;28;20025;-71
2023/07/02 05:45:46;;;;;;;25.75;11.10;;;;;;;20.59;70.49;100726.50;5036611;28;20392;-72
2023/07/02 05:48:12;;;;;;;33.78;11.60;;;;;;;20.82;70.45;100721.28;5041876;28;20040;-71
2023/07/02 05:50:37;;;;;;;32.58;11.80;;;;;;;20.31;70.29;100723.13;5040031;28;20045;-71
2023/07/02 05:53:03;;;;;;;30.40;12.05;;;;;;;20.18;71.43;100726.28;5042622;28;20041;-72
2023/07/02 05:55:29;;;;;;;31.23;12.02;;;;;;;20.12;71.36;100744.03;5036569;28;20068;-72
2023/07/02 05:57:57;;;;;;;26.83;11.02;;;;;;;20.26;70.77;100734.44;5017502;28;20056;-72
2023/07/02 06:00:22;;;;;;;30.65;12.38;;;;;;;20.54;70.24;100734.25;5044608;28;20048;-73
2023/07/02 06:02:48;;;;;;;28.10;11.52;;;;;;;20.98;68.12;100736.72;5042117;28;20071;-72
2023/07/02 06:05:13;;;;;;;27.17;11.02;;;;;;;21.38;66.79;100730.50;5034327;28;20091;-73
2023/07/02 06:07:39;;;;;;;26.38;11.38;;;;;;;21.11;65.76;100746.06;5042507;28;20774;-72
2023/07/02 06:10:05;;;;;;;31.23;11.65;;;;;;;21.42;65.74;100732.69;5039729;28;20454;-71
2023/07/02 06:12:30;;;;;;;27.60;10.68;;;;;;;21.42;65.67;100738.13;5041537;28;20038;-72
2023/07/02 06:14:56;;;;;;;29.80;11.90;;;;;;;21.49;66.39;100740.16;5035358;28;20041;-72
2023/07/02 06:17:22;;;;;;;29.27;12.02;;;;;;;21.59;65.60;100743.56;5035337;28;20361;-72
2023/07/02 06:19:48;;;;;;;25.77;10.35;;;;;;;21.58;63.61;100748.13;5044040;28;20045;-71
2023/07/02 06:22:13;;;;;;;30.58;12.15;;;;;;;21.21;64.92;100744.03;5047608;28;20038;-71
2023/07/02 06:24:39;;;;;;;29.92;11.55;;;;;;;21.32;66.09;100744.75;5030813;28;20037;-72
2023/07/02 06:27:05;;;;;;;25.92;11.43;;;;;;;21.29;64.73;100745.06;5032296;28;20245;-73
2023/07/02 06:29:30;;;;;;;29.10;11.98;;;;;;;21.67;65.08;100749.81;5068179;28;20036;-71
2023/07/02 06:31:56;;;;;;;29.77;10.98;;;;;;;21.99;63.31;100750.78;5035033;28;20040;-72
2023/07/02 06:34:21;;;;;;;24.73;10.02;;;;;;;21.79;60.27;100749.44;5047464;28;20057;-72
2023/07/02 06:36:48;;;;;;;29.75;9.95;;;;;;;21.98;60.60;100760.75;5037388;28;20829;-72
2023/07/02 06:39:13;;;;;;;36.22;10.93;;;;;;;21.42;60.80;100759.81;5046355;28;20029;-73
2023/07/02 06:41:39;;;;;;;33.30;10.63;;;;;;;21.78;59.87;100767.59;5046168;28;20853;-72
2023/07/02 06:44:06;;;;;;;26.30;10.05;;;;;;;21.65;60.62;100770.00;5039198;28;20160;-71
2023/07/02 06:46:39;;;;;;;27.58;9.95;;;;;;;22.22;60.50;100768.03;5039641;28;20030;-71
2023/07/02 06:49:05;;;;;;;27.45;9.30;;;;;;;22.35;59.01;100778.38;5029793;28;20205;-71
2023/07/02 06:51:30;;;;;;;25.98;10.07;;;;;;;21.88;59.28;100781.84;5045999;28;20318;-71
2023/07/02 06:53:56;;;;;;;24.08;9.43;;;;;;;21.78;58.36;100781.16;5048191;28;20482;-71
2023/07/02 06:56:21;;;;;;;25.42;9.50;;;;;;;21.89;58.64;100780.84;5031891;28;20036;-72
2023/07/02 06:58:47;;;;;;;27.02;9.07;;;;;;;21.71;57.64;100788.31;5048674;28;20539;-71
2023/07/02 07:01:13;;;;;;;26.80;9.95;;;;;;;21.95;59.17;100788.28;5044134;28;20412;-72
2023/07/02 07:03:38;;;;;;;24.27;9.43;;;;;;;22.09;58.55;100786.75;5052047;28;20033;-72
2023/07/02 07:06:04;;;;;;;30.15;10.27;;;;;;;22.04;59.02;100791.84;5050153;28;20612;-72
2023/07/02 07:08:29;;;;;;;20.55;10.35;;;;;;;21.76;58.15;100799.50;5047175;28;20481;-72
2023/07/02 07:10:55;;;;;;;28.13;10.07;;;;;;;21.55;58.73;100804.63;5043530;28;20048;-72
2023/07/02 07:13:21;;;;;;;22.33;9.43;;;;;;;21.91;58.24;100805.94;5035304;28;20468;-72
2023/07/02 07:15:46;;;;;;;22.55;9.75;;;;;;;22.09;58.42;100811.19;5048951;28;20182;-72
2023/07/02 07:18:13;;;;;;;28.30;8.70;;;;;;;22.19;56.92;100806.44;5047271;28;20037;-71
2023/07/02 07:20:42;;;;;;;19.02;8.25;;;;;;;21.93;56.74;100808.47;5050411;28;20135;-71
2023/07/02 07:23:07;;;;;;;24.27;9.52;;;;;;;22.23;56.31;100810.47;5039197;28;20033;-72
2023/07/02 07:25:33;;;;;;;23.05;8.70;;;;;;;21.88;56.42;100817.13;5036654;28;20787;-72
2023/07/02 07:28:01;;;;;;;25.30;9.77;;;;;;;21.75;56.63;100816.81;5035003;28;20156;-73
2023/07/02 07:30:27;;;;;;;17.60;8.70;;;;;;;21.82;55.90;100825.13;5030630;28;20143;-74
2023/07/02 07:32:53;;;;;;;21.20;8.43;;;;;;;21.48;56.76;100825.28;5040433;28;20104;-73
2023/07/02 07:35:21;;;;;;;22.23;8.90;;;;;;;21.67;56.23;100828.50;5044245;28;20084;-74
2023/07/02 07:37:47;;;;;;;23.30;9.10;;;;;;;21.70;56.73;100824.63;5048705;28;20074;-72
2023/07/02 07:40:13;;;;;;;23.08;7.55;;;;;;;21.71;55.34;100826.31;5049142;28;20029;-72
2023/07/02 07:42:40;;;;;;;20.30;9.02;;;;;;;22.29;56.51;100822.53;5046699;28;20190;-73
2023/07/02 07:45:06;;;;;;;19.73;7.80;;;;;;;22.38;55.88;100818.75;5045832;28;20033;-72
2023/07/02 07:47:31;;;;;;;24.20;8.63;;;;;;;22.53;55.73;100815.31;5038988;28;20040;-73
2023/07/02 07:49:57;;;;;;;21.05;8.43;;;;;;;22.49;54.31;100825.69;5045047;28;20036;-72
2023/07/02 07:52:22;;;;;;;18.90;8.60;;;;;;;22.63;55.77;100824.94;5036721;28;20751;-72
2023/07/02 07:54:48;;;;;;;27.00;8.82;;;;;;;22.55;54.58;100822.28;5049016;28;20494;-72
2023/07/02 07:57:14;;;;;;;26.55;7.82;;;;;;;22.88;54.89;100827.56;5033732;28;20041;-72
2023/07/02 07:59:40;;;;;;;21.50;7.97;;;;;;;22.72;54.21;100833.94;5024439;28;20032;-72
2023/07/02 08:02:06;;;;;;;24.00;8.65;;;;;;;22.66;56.49;100831.94;5041307;28;20614;-72
2023/07/02 08:04:32;;;;;;;18.85;8.32;;;;;;;22.96;55.63;100833.84;5032478;28;20711;-72
2023/07/02 08:06:57;;;;;;;16.65;8.13;;;;;;;22.90;54.94;100831.00;5040563;28;20056;-71
2023/07/02 08:09:24;;;;;;;24.13;8.27;;;;;;;22.69;56.67;100834.28;5037554;28;20034;-72
2023/07/02 08:11:50;;;;;;;20.90;7.78;;;;;;;22.48;56.84;100824.00;5042662;28;20068;-71
2023/07/02 08:14:18;;;;;;;23.42;8.98;;;;;;;22.27;56.42;100838.16;5040657;28;20791;-72
2023/07/02 08:16:44;;;;;;;22.30;9.13;;;;;;;22.58;56.51;100835.50;5036753;28;20045;-71
2023/07/02 08:19:13;;;;;;;18.08;8.05;;;;;;;22.39;55.38;100849.50;5040529;28;20033;-71
2023/07/02 08:21:42;;;;;;;22.27;8.95;;;;;;;23.00;56.25;100829.75;5040392;28;20353;-72
2023/07/02 08:24:07;;;;;;;19.80;8.13;;;;;;;22.67;55.25;100841.78;5038782;28;20033;-74
2023/07/02 08:26:33;;;;;;;18.77;8.65;;;;;;;22.66;55.84;100838.19;5029404;28;20142;-71
2023/07/02 08:28:58;;;;;;;20.42;7.95;;;;;;;22.27;54.98;100834.59;5043450;28;20145;-72
2023/07/02 08:31:24;;;;;;;23.42;7.55;;;;;;;22.73;53.39;100832.91;5052517;28;20151;-71
2023/07/02 08:33:49;;;;;;;17.52;7.30;;;;;;;22.40;52.01;100849.34;5041334;28;20501;-74
2023/07/02 08:36:15;;;;;;;12.70;7.05;;;;;;;22.83;50.06;100854.44;5044268;28;20048;-72
2023/07/02 08:38:43;;;;;;;16.75;6.85;;;;;;;22.81;48.28;100845.63;5044781;28;20045;-72
2023/07/02 08:41:08;;;;;;;16.20;6.60;;;;;;;22.90;49.61;100856.31;5050953;28;20052;-72
2023/07/02 08:43:35;;;;;;;17.02;7.47;;;;;;;22.40;50.33;100857.50;5047914;28;20020;-74
2023/07/02 08:46:01;;;;;;;16.70;7.70;;;;;;;22.73;50.55;100858.22;5044195;28;20056;-72
2023/07/02 08:48:29;;;;;;;23.20;7.93;;;;;;;22.77;49.97;100855.16;5046247;28;20037;-71
2023/07/02 08:50:55;;;;;;;23.70;8.18;;;;;;;22.41;49.47;100858.34;5037004;28;21038;-72
2023/07/02 08:53:25;;;;;;;14.85;6.63;;;;;;;22.39;50.04;100868.50;5049380;28;20041;-72
2023/07/02 08:55:50;;;;;;;17.60;7.93;;;;;;;22.27;50.35;100880.78;5048762;28;20041;-72
2023/07/02 08:58:16;;;;;;;17.98;7.22;;;;;;;22.19;50.13;100873.50;5041306;28;20313;-72
2023/07/02 09:01:07;;;;;;;17.80;8.00;;;;;;;21.87;51.00;100879.75;5041770;28;20044;-70
2023/07/02 09:03:32;;;;;;;19.33;8.23;;;;;;;22.89;51.71;100870.94;5044874;28;20021;-71
2023/07/02 09:05:58;;;;;;;15.88;7.40;;;;;;;22.30;50.93;100864.16;5045152;28;20038;-72
2023/07/02 09:08:25;;;;;;;21.65;7.40;;;;;;;23.03;51.66;100884.81;5051051;28;20033;-72
2023/07/02 09:10:50;;;;;;;16.77;7.97;;;;;;;22.87;50.30;100875.66;5045470;28;20029;-72
2023/07/02 09:13:16;;;;;;;14.77;6.95;;;;;;;22.23;50.20;100872.97;5054453;28;20036;-72
2023/07/02 09:15:42;;;;;;;23.35;7.78;;;;;;;21.80;51.85;100879.59;5053358;28;20030;-74
2023/07/02 09:18:16;;;;;;;16.15;7.55;;;;;;;21.89;52.03;100870.44;5051902;28;20583;-72
2023/07/02 09:20:42;;;;;;;16.77;6.90;;;;;;;21.43;51.83;100882.75;5053368;28;20041;-72
2023/07/02 09:23:07;;;;;;;22.52;7.90;;;;;;;21.16;52.47;100887.44;5055833;28;20138;-72
2023/07/02 09:25:37;;;;;;;16.92;7.55;;;;;;;22.21;51.82;100877.72;5053016;28;20123;-72
2023/07/02 09:28:25;;;;;;;17.10;7.47;;;;;;;22.79;48.92;100880.28;5054809;28;20036;-72
2023/07/02 09:30:56;;;;;;;14.65;6.72;;;;;;;23.44;46.73;100866.38;5057221;28;20047;-73
2023/07/02 09:33:28;;;;;;;13.00;7.10;;;;;;;23.03;47.29;100865.78;5054799;28;20033;-74
2023/07/02 09:35:55;;;;;;;19.23;7.30;;;;;;;22.67;47.50;100877.97;5051700;28;20408;-74
2023/07/02 09:38:21;;;;;;;17.75;6.88;;;;;;;22.70;47.13;100869.47;5047867;28;20079;-72
2023/07/02 09:40:49;;;;;;;13.43;6.43;;;;;;;22.78;46.56;100865.84;5045700;28;20456;-72
2023/07/02 09:43:19;;;;;;;15.25;6.80;;;;;;;22.79;47.50;100867.53;5042147;28;20033;-72
2023/07/02 09:45:46;;;;;;;18.48;6.95;;;;;;;22.35;48.70;100875.34;5039742;28;20029;-72
2023/07/02 09:48:16;;;;;;;19.52;6.75;;;;;;;22.04;48.18;100896.88;5044671;28;20036;-72
2023/07/02 09:50:48;;;;;;;18.42;6.57;;;;;;;22.09;48.63;100878.22;5044870;28;20036;-71
2023/07/02 09:53:17;;;;;;;17.85;7.20;;;;;;;22.28;48.61;100880.59;5046820;28;20049;-74
2023/07/02 09:55:43;;;;;;;13.68;6.55;;;;;;;21.86;47.76;100902.50;5042028;28;20032;-74
2023/07/02 09:58:12;;;;;;;11.45;5.95;;;;;;;22.20;46.46;100888.78;5046260;28;20038;-73
2023/07/02 10:00:38;;;;;;;15.27;7.15;;;;;;;22.59;46.47;100880.72;5043894;28;20040;-72
2023/07/02 10:03:04;;;;;;;14.30;6.10;;;;;;;22.60;47.58;100884.28;5040412;28;20487;-71
2023/07/02 10:05:31;;;;;;;13.02;6.00;;;;;;;22.07;47.78;100885.69;5043413;28;20487;-71
2023/07/02 10:07:59;;;;;;;14.77;6.97;;;;;;;22.29;48.64;100890.47;5046132;28;20033;-73
2023/07/02 10:10:29;;;;;;;14.70;6.82;;;;;;;22.14;47.92;100895.75;5045471;28;20091;-72
2023/07/02 10:12:55;;;;;;;12.85;6.13;;;;;;;22.57;47.37;100893.63;5040326;28;20025;-71
2023/07/02 10:15:28;;;;;;;15.32;6.38;;;;;;;22.58;48.89;100895.31;5044995;28;20644;-72
2023/07/02 10:18:01;;;;;;;13.50;6.75;;;;;;;22.93;48.34;100896.75;5042165;28;20056;-72
2023/07/02 10:20:43;;;;;;;16.35;7.15;;;;;;;23.25;47.77;100894.91;5042074;28;20333;-72
2023/07/02 10:23:09;;;;;;;14.43;6.47;;;;;;;23.74;46.07;100894.59;5047037;28;20042;-72
2023/07/02 10:25:38;;;;;;;15.18;6.30;;;;;;;23.71;44.65;100884.09;5036556;28;20040;-71
2023/07/02 10:28:22;;;;;;;10.70;5.93;;;;;;;23.91;46.19;100892.63;5045192;28;20037;-71
2023/07/02 10:30:48;;;;;;;14.10;7.00;;;;;;;23.09;44.95;100886.81;5071973;28;20037;-73
2023/07/02 10:33:18;;;;;;;12.10;5.85;;;;;;;22.55;45.04;100897.56;5045514;28;20053;-71
2023/07/02 10:35:49;;;;;;;9.50;5.22;;;;;;;22.15;45.72;100899.31;5044672;28;20061;-71
2023/07/02 10:38:19;;;;;;;15.43;6.15;;;;;;;22.23;46.23;100899.28;5046510;28;20037;-72
2023/07/02 10:40:46;;;;;;;11.68;5.68;;;;;;;21.83;47.00;100908.25;5043355;28;20029;-72
2023/07/02 10:43:12;;;;;;;10.73;5.47;;;;;;;21.27;47.14;100907.97;5049600;28;20033;-72
2023/07/02 10:45:38;;;;;;;13.55;5.35;;;;;;;21.41;47.77;100910.06;5038622;28;20037;-71
2023/07/02 10:48:11;;;;;;;15.15;6.22;;;;;;;21.69;47.84;100899.78;5049273;28;20025;-72
2023/07/02 10:50:36;;;;;;;10.80;5.18;;;;;;;22.13;47.12;100906.75;5043999;28;20117;-74
2023/07/02 10:53:03;;;;;;;14.05;5.97;;;;;;;22.73;46.82;100898.16;5041218;28;20491;-72
2023/07/02 10:55:28;;;;;;;14.50;5.82;;;;;;;22.99;46.05;100895.19;5046143;28;20820;-71
2023/07/02 10:58:04;;;;;;;25.25;6.50;;;;;;;23.13;44.17;100901.75;5047434;28;20037;-72
2023/07/02 11:00:29;;;;;;;16.13;5.90;;;;;;;23.39;44.99;100890.56;5042004;28;20024;-73
2023/07/02 11:02:55;;;;;;;10.85;5.57;;;;;;;23.47;43.49;100890.53;5041765;28;20486;-72
2023/07/02 11:05:21;;;;;;;14.30;5.75;;;;;;;23.93;45.44;100893.25;5039693;28;20047;-72
2023/07/02 11:07:46;;;;;;;10.00;5.43;;;;;;;22.66;44.52;100908.88;5042972;28;20565;-72
2023/07/02 11:10:18;;;;;;;10.65;5.53;;;;;;;23.23;45.62;100911.41;5047425;28;20037;-71